createdAt,value
2023-02-16T00:01:23.163Z,5.57
2023-02-16T00:03:53.053Z,5.00
2023-02-16T00:06:22.207Z,5.30
2023-02-16T00:08:53.463Z,5.07
2023-02-16T00:11:48.249Z,5.57
2023-02-16T00:14:17.654Z,5.68
2023-02-16T00:16:46.651Z,5.75
2023-02-16T00:19:41.622Z,6.90
2023-02-16T00:22:12.429Z,7.85
2023-02-16T00:24:41.347Z,6.25
2023-02-16T00:27:19.831Z,5.70
2023-02-16T00:29:48.748Z,6.97
2023-02-16T00:32:17.856Z,5.35
2023-02-16T00:34:46.827Z,5.28
2023-02-16T00:37:16.226Z,4.68
2023-02-16T00:39:46.603Z,5.20
2023-02-16T00:42:28.210Z,4.88
2023-02-16T00:44:59.667Z,6.07
2023-02-16T00:47:39.582Z,5.78
2023-02-16T00:50:33.894Z,6.68
2023-02-16T00:53:06.116Z,5.28
2023-02-16T00:55:37.477Z,4.40
2023-02-16T00:58:16.882Z,6.25
2023-02-16T01:00:57.666Z,10.00
2023-02-16T01:03:31.665Z,12.75
2023-02-16T01:06:18.822Z,13.00
2023-02-16T01:09:06.135Z,12.32
2023-02-16T01:11:35.183Z,8.27
2023-02-16T01:14:04.146Z,8.25
2023-02-16T01:16:43.060Z,7.85
2023-02-16T01:19:15.221Z,4.60
2023-02-16T01:21:44.353Z,4.63
2023-02-16T01:24:13.318Z,5.25
2023-02-16T01:26:45.892Z,4.75
2023-02-16T01:29:23.020Z,13.95
2023-02-16T01:31:52.257Z,4.95
2023-02-16T01:34:21.459Z,6.40
2023-02-16T01:36:51.093Z,4.93
2023-02-16T01:39:21.952Z,9.25
2023-02-16T01:41:57.125Z,13.23
2023-02-16T01:44:29.667Z,4.47
2023-02-16T01:47:17.139Z,6.15
2023-02-16T01:49:46.106Z,4.55
2023-02-16T01:52:44.332Z,4.47
2023-02-16T01:55:21.482Z,4.18
2023-02-16T01:57:59.093Z,4.00
2023-02-16T02:00:50.766Z,3.92
2023-02-16T02:03:56.305Z,3.85
2023-02-16T02:06:37.548Z,4.00
2023-02-16T02:10:08.464Z,3.85
2023-02-16T02:12:59.840Z,4.38
2023-02-16T02:15:32.741Z,3.08
2023-02-16T02:18:02.320Z,4.65
2023-02-16T02:21:15.324Z,3.95
2023-02-16T02:24:07.544Z,3.63
2023-02-16T02:27:00.236Z,3.55
2023-02-16T02:29:53.792Z,3.90
2023-02-16T02:32:43.780Z,4.70
2023-02-16T02:35:50.586Z,3.40
2023-02-16T02:38:22.565Z,3.53
2023-02-16T02:41:17.511Z,3.30
2023-02-16T02:43:56.678Z,3.42
2023-02-16T02:46:32.737Z,5.05
2023-02-16T02:49:01.777Z,3.80
2023-02-16T02:51:30.821Z,3.28
2023-02-16T02:54:22.834Z,3.65
2023-02-16T02:57:32.908Z,3.40
2023-02-16T03:00:44.956Z,3.22
2023-02-16T03:03:33.860Z,3.30
2023-02-16T03:06:15.325Z,5.47
2023-02-16T03:08:49.290Z,3.53
2023-02-16T03:14:43.284Z,4.63
2023-02-16T03:17:37.342Z,3.17
2023-02-16T03:20:27.704Z,4.43
2023-02-16T03:23:16.081Z,3.58
2023-02-16T03:26:04.368Z,6.20
2023-02-16T03:28:54.107Z,10.93
2023-02-16T03:31:29.598Z,4.28
2023-02-16T03:33:58.818Z,3.15
2023-02-16T03:36:31.013Z,3.35
2023-02-16T03:39:01.054Z,3.30
2023-02-16T03:41:34.657Z,3.75
2023-02-16T03:44:03.672Z,3.72
2023-02-16T03:46:33.027Z,4.03
2023-02-16T03:49:01.969Z,3.90
2023-02-16T03:51:30.884Z,4.20
2023-02-16T03:54:00.727Z,4.63
2023-02-16T03:56:29.659Z,4.50
2023-02-16T03:58:58.735Z,3.65
2023-02-16T04:01:28.020Z,4.07
2023-02-16T04:03:56.993Z,3.70
2023-02-16T04:06:26.203Z,4.10
2023-02-16T04:08:55.750Z,4.13
2023-02-16T04:11:42.612Z,4.40
2023-02-16T04:14:11.537Z,4.53
2023-02-16T04:16:40.544Z,5.13
2023-02-16T04:19:09.489Z,3.95
2023-02-16T04:21:38.320Z,4.05
2023-02-16T04:24:07.576Z,4.00
2023-02-16T04:26:36.559Z,4.28
2023-02-16T04:29:05.452Z,3.95
2023-02-16T04:31:34.400Z,4.32
2023-02-16T04:34:03.377Z,4.30
2023-02-16T04:36:32.775Z,4.03
2023-02-16T04:39:01.769Z,3.90
2023-02-16T04:41:30.694Z,3.63
2023-02-16T04:43:59.719Z,4.55
2023-02-16T04:46:28.664Z,4.07
2023-02-16T04:48:57.669Z,4.72
2023-02-16T04:51:26.785Z,5.55
2023-02-16T04:53:55.724Z,5.95
2023-02-16T04:56:24.702Z,4.60
2023-02-16T04:58:53.847Z,6.45
2023-02-16T05:01:25.002Z,7.03
2023-02-16T05:03:54.037Z,7.50
2023-02-16T05:06:23.039Z,5.90
2023-02-16T05:08:51.899Z,4.80
2023-02-16T05:11:38.690Z,4.57
2023-02-16T05:14:26.270Z,5.72
2023-02-16T05:16:55.219Z,3.92
2023-02-16T05:19:24.158Z,3.88
2023-02-16T05:21:53.061Z,4.45
2023-02-16T05:24:21.923Z,4.05
2023-02-16T05:26:50.815Z,4.50
2023-02-16T05:29:19.705Z,4.20
2023-02-16T05:31:49.803Z,4.10
2023-02-16T05:34:18.773Z,4.35
2023-02-16T05:36:47.720Z,4.72
2023-02-16T05:39:16.799Z,4.32
2023-02-16T05:41:45.860Z,4.85
2023-02-16T05:44:14.906Z,4.30
2023-02-16T05:46:44.602Z,4.40
2023-02-16T05:49:14.110Z,5.68
2023-02-16T05:51:43.011Z,4.82
2023-02-16T05:54:18.213Z,4.25
2023-02-16T05:56:49.686Z,4.50
2023-02-16T05:59:19.228Z,4.10
2023-02-16T06:01:51.624Z,4.45
2023-02-16T06:04:22.400Z,4.30
2023-02-16T06:06:51.655Z,4.78
2023-02-16T06:09:20.610Z,4.32
2023-02-16T06:11:49.792Z,4.90
2023-02-16T06:14:20.916Z,5.57
2023-02-16T06:16:52.826Z,4.03
2023-02-16T06:19:22.545Z,4.32
2023-02-16T06:21:51.397Z,4.00
2023-02-16T06:24:20.347Z,4.30
2023-02-16T06:26:49.348Z,4.10
2023-02-16T06:29:18.990Z,4.40
2023-02-16T06:31:48.115Z,4.40
2023-02-16T06:34:17.145Z,5.05
2023-02-16T06:36:46.040Z,4.53
2023-02-16T06:39:14.942Z,4.55
2023-02-16T06:41:43.893Z,5.07
2023-02-16T06:44:15.217Z,4.78
2023-02-16T06:46:46.352Z,4.78
2023-02-16T06:49:20.186Z,4.50
2023-02-16T06:51:50.991Z,4.50
2023-02-16T06:54:20.601Z,3.97
2023-02-16T06:56:49.497Z,5.90
2023-02-16T06:59:18.657Z,4.05
2023-02-16T07:01:48.009Z,5.40
2023-02-16T07:04:16.858Z,4.93
2023-02-16T07:06:45.725Z,5.28
2023-02-16T07:09:14.649Z,4.55
2023-02-16T07:11:43.524Z,4.75
2023-02-16T07:14:12.666Z,4.75
2023-02-16T07:16:41.627Z,5.38
2023-02-16T07:19:10.996Z,4.68
2023-02-16T07:21:39.923Z,4.38
2023-02-16T07:24:09.191Z,4.65
2023-02-16T07:26:40.013Z,4.93
2023-02-16T07:29:09.018Z,5.82
2023-02-16T07:31:37.990Z,4.97
2023-02-16T07:34:07.060Z,5.13
2023-02-16T07:36:36.298Z,4.97
2023-02-16T07:39:05.513Z,5.43
2023-02-16T07:41:34.697Z,5.57
2023-02-16T07:44:03.638Z,4.60
2023-02-16T07:46:33.400Z,5.00
2023-02-16T07:49:02.596Z,5.70
2023-02-16T07:51:33.173Z,5.28
2023-02-16T07:54:03.614Z,5.07
2023-02-16T07:56:34.556Z,4.75
2023-02-16T07:59:04.929Z,4.97
2023-02-16T08:01:35.426Z,5.20
2023-02-16T08:04:04.776Z,4.85
2023-02-16T08:06:35.425Z,5.18
2023-02-16T08:09:04.543Z,5.20
2023-02-16T08:11:33.501Z,5.65
2023-02-16T08:14:02.525Z,5.30
2023-02-16T08:16:31.996Z,5.50
2023-02-16T08:19:02.502Z,6.07
2023-02-16T08:21:34.181Z,5.55
2023-02-16T08:24:08.184Z,5.72
2023-02-16T08:26:40.637Z,5.68
2023-02-16T08:29:19.304Z,6.10
2023-02-16T08:31:49.411Z,5.50
2023-02-16T08:34:20.791Z,4.75
2023-02-16T08:36:54.233Z,5.18
2023-02-16T08:39:24.370Z,5.70
2023-02-16T08:41:54.045Z,5.50
2023-02-16T08:44:25.194Z,5.70
2023-02-16T08:46:56.630Z,5.40
2023-02-16T08:49:26.071Z,5.10
2023-02-16T08:51:57.320Z,4.85
2023-02-16T08:54:31.617Z,4.93
2023-02-16T08:57:03.814Z,5.40
2023-02-16T08:59:34.416Z,5.10
2023-02-16T09:02:03.500Z,4.70
2023-02-16T09:04:32.910Z,5.07
2023-02-16T09:07:01.956Z,5.63
2023-02-16T09:09:31.000Z,6.28
2023-02-16T09:11:59.979Z,5.85
2023-02-16T09:14:29.075Z,6.03
2023-02-16T09:16:59.110Z,5.57
2023-02-16T09:19:29.382Z,5.50
2023-02-16T09:21:58.269Z,5.50
2023-02-16T09:24:27.994Z,6.03
2023-02-16T09:26:56.846Z,5.45
2023-02-16T09:29:25.691Z,5.70
2023-02-16T09:31:56.811Z,5.43
2023-02-16T09:34:27.746Z,7.50
2023-02-16T09:36:56.858Z,6.10
2023-02-16T09:39:25.735Z,5.82
2023-02-16T09:42:22.062Z,5.68
2023-02-16T09:45:17.970Z,5.82
2023-02-16T09:47:49.194Z,6.93
2023-02-16T09:50:50.396Z,5.70
2023-02-16T09:53:30.132Z,6.88
2023-02-16T09:56:28.852Z,6.93
2023-02-16T09:59:31.950Z,5.95
2023-02-16T10:02:52.162Z,6.55
2023-02-16T10:05:34.055Z,6.60
2023-02-16T10:08:15.508Z,6.10
2023-02-16T10:11:33.035Z,5.93
2023-02-16T10:14:09.809Z,6.22
2023-02-16T10:16:44.076Z,6.43
2023-02-16T10:19:47.641Z,5.93
2023-02-16T10:22:22.526Z,6.13
2023-02-16T10:25:16.690Z,6.65
2023-02-16T10:27:48.839Z,6.20
2023-02-16T10:30:23.069Z,7.07
2023-02-16T10:33:09.282Z,7.20
2023-02-16T10:35:38.329Z,7.50
2023-02-16T10:38:23.639Z,7.18
2023-02-16T10:41:01.891Z,7.32
2023-02-16T10:43:49.328Z,8.00
2023-02-16T10:46:26.942Z,7.20
2023-02-16T10:48:57.720Z,8.40
2023-02-16T10:51:32.858Z,8.05
2023-02-16T10:54:08.788Z,9.30
2023-02-16T10:56:43.712Z,7.78
2023-02-16T10:59:25.868Z,6.93
2023-02-16T11:01:58.569Z,7.10
2023-02-16T11:04:45.078Z,11.23
2023-02-16T11:07:19.887Z,7.03
2023-02-16T11:09:56.271Z,8.68
2023-02-16T11:12:45.012Z,7.68
2023-02-16T11:15:20.396Z,7.75
2023-02-16T11:18:05.909Z,7.18
2023-02-16T11:20:46.179Z,7.60
2023-02-16T11:23:40.054Z,8.50
2023-02-16T11:26:11.835Z,7.10
2023-02-16T11:28:45.409Z,7.57
2023-02-16T11:34:06.109Z,7.72
2023-02-16T11:36:46.096Z,8.90
2023-02-16T11:39:21.059Z,8.18
2023-02-16T11:42:05.203Z,9.38
2023-02-16T11:47:10.306Z,10.55
2023-02-16T11:49:44.464Z,11.10
2023-02-16T11:52:33.750Z,11.30
2023-02-16T11:55:04.161Z,9.80
2023-02-16T11:57:37.080Z,12.10
2023-02-16T12:00:20.450Z,12.27
2023-02-16T12:03:04.103Z,9.20
2023-02-16T12:05:46.392Z,9.55
2023-02-16T12:08:38.868Z,9.40
2023-02-16T12:11:08.000Z,11.20
2023-02-16T12:14:08.248Z,11.55
2023-02-16T12:16:58.667Z,10.00
2023-02-16T12:19:41.706Z,11.75
2023-02-16T12:22:17.566Z,11.98
2023-02-16T12:25:14.522Z,12.52
2023-02-16T12:28:02.845Z,12.82
2023-02-16T12:31:01.528Z,12.73
2023-02-16T12:33:41.312Z,13.93
2023-02-16T12:36:43.184Z,14.65
2023-02-16T12:39:21.180Z,13.98
2023-02-16T12:42:14.416Z,13.77
2023-02-16T12:45:01.092Z,19.27
2023-02-16T12:47:42.807Z,18.67
2023-02-16T12:50:32.172Z,17.55
2023-02-16T12:53:16.387Z,14.85
2023-02-16T12:58:32.726Z,13.40
2023-02-16T13:01:22.886Z,14.45
2023-02-16T13:03:51.845Z,13.38
2023-02-16T13:06:38.636Z,13.98
2023-02-16T13:09:17.326Z,23.10
2023-02-16T13:12:02.617Z,15.55
2023-02-16T13:14:38.868Z,21.17
2023-02-16T13:17:19.348Z,13.00
2023-02-16T13:19:49.105Z,14.18
2023-02-16T13:22:29.976Z,14.10
2023-02-16T13:25:04.944Z,13.60
2023-02-16T13:27:58.227Z,16.02
2023-02-16T13:30:36.490Z,13.98
2023-02-16T13:33:26.642Z,14.05
2023-02-16T13:36:12.000Z,13.98
2023-02-16T13:39:02.058Z,13.48
2023-02-16T13:41:40.108Z,13.07
2023-02-16T13:44:17.469Z,14.00
2023-02-16T13:46:51.275Z,12.95
2023-02-16T13:49:45.988Z,13.32
2023-02-16T13:52:36.088Z,13.27
2023-02-16T13:55:11.094Z,14.00
2023-02-16T13:57:53.104Z,13.02
2023-02-16T14:00:36.657Z,15.20
2023-02-16T14:03:34.909Z,16.25
2023-02-16T14:06:38.646Z,15.23
2023-02-16T14:09:20.444Z,16.00
2023-02-16T14:11:58.918Z,15.93
2023-02-16T14:14:54.790Z,15.30
2023-02-16T14:17:26.248Z,15.98
2023-02-16T14:20:07.627Z,18.23
2023-02-16T14:22:51.968Z,18.00
2023-02-16T14:28:23.519Z,15.88
2023-02-16T14:31:00.646Z,15.75
2023-02-16T14:33:56.436Z,19.00
2023-02-16T14:36:28.108Z,17.02
2023-02-16T14:39:02.656Z,15.65
2023-02-16T14:41:35.389Z,16.05
2023-02-16T14:44:07.571Z,20.38
2023-02-16T14:46:42.745Z,17.08
2023-02-16T14:49:45.114Z,15.32
2023-02-16T14:52:41.430Z,16.98
2023-02-16T14:56:00.809Z,15.73
2023-02-16T14:58:53.039Z,16.70
2023-02-16T15:01:22.984Z,16.80
2023-02-16T15:03:57.484Z,15.18
2023-02-16T15:06:45.796Z,15.27
2023-02-16T15:09:25.062Z,15.90
2023-02-16T15:12:13.014Z,16.05
2023-02-16T15:14:55.021Z,16.95
2023-02-16T15:17:47.190Z,14.68
2023-02-16T15:20:16.131Z,16.27
2023-02-16T15:22:55.673Z,17.17
2023-02-16T15:25:30.389Z,18.08
2023-02-16T15:28:21.115Z,17.02
2023-02-16T15:30:52.887Z,17.15
2023-02-16T15:33:24.685Z,16.15
2023-02-16T15:36:00.986Z,17.60
2023-02-16T15:38:35.792Z,16.48
2023-02-16T15:41:08.060Z,16.15
2023-02-16T15:43:48.621Z,15.98
2023-02-16T15:46:29.541Z,17.83
2023-02-16T15:48:59.349Z,15.35
2023-02-16T15:51:35.075Z,16.17
2023-02-16T15:54:14.849Z,16.35
2023-02-16T15:56:55.369Z,15.50
2023-02-16T15:59:39.688Z,16.02
2023-02-16T16:02:26.764Z,16.23
2023-02-16T16:05:02.444Z,15.52
2023-02-16T16:07:34.125Z,15.48
2023-02-16T16:10:05.634Z,15.30
2023-02-16T16:12:34.621Z,15.48
2023-02-16T16:15:05.526Z,14.20
2023-02-16T16:17:40.864Z,14.38
2023-02-16T16:20:31.607Z,13.13
2023-02-16T16:23:30.051Z,14.15
2023-02-16T16:25:59.894Z,13.93
2023-02-16T16:28:28.833Z,13.43
2023-02-16T16:31:16.925Z,13.43
2023-02-16T16:34:03.989Z,12.15
2023-02-16T16:36:36.898Z,12.90
2023-02-16T16:39:28.495Z,12.73
2023-02-16T16:42:22.768Z,13.43
2023-02-16T16:45:06.213Z,13.30
2023-02-16T16:47:40.957Z,14.55
2023-02-16T16:50:15.893Z,12.38
2023-02-16T16:52:47.496Z,12.07
2023-02-16T16:55:26.209Z,12.27
2023-02-16T16:58:01.560Z,12.07
2023-02-16T17:00:35.632Z,12.00
2023-02-16T17:05:35.361Z,15.32
2023-02-16T17:08:04.243Z,15.30
2023-02-16T17:10:33.645Z,12.75
2023-02-16T17:13:03.963Z,13.65
2023-02-16T17:15:52.510Z,11.93
2023-02-16T17:18:23.309Z,13.70
2023-02-16T17:20:52.794Z,12.45
2023-02-16T17:23:23.230Z,12.55
2023-02-16T17:25:52.531Z,12.45
2023-02-16T17:28:22.719Z,13.85
2023-02-16T17:30:51.755Z,13.18
2023-02-16T17:33:21.492Z,12.55
2023-02-16T17:35:50.600Z,12.75
2023-02-16T17:38:22.043Z,12.48
2023-02-16T17:40:53.704Z,14.02
2023-02-16T17:43:23.508Z,13.85
2023-02-16T17:45:53.597Z,13.32
2023-02-16T17:48:28.837Z,12.95
2023-02-16T17:50:59.515Z,12.43
2023-02-16T17:53:29.625Z,12.32
2023-02-16T17:55:59.708Z,12.57
2023-02-16T17:58:28.583Z,12.48
2023-02-16T18:00:57.638Z,12.88
2023-02-16T18:03:26.806Z,13.10
2023-02-16T18:05:55.890Z,13.38
2023-02-16T18:08:25.141Z,12.55
2023-02-16T18:11:02.878Z,11.70
2023-02-16T18:13:32.529Z,11.70
2023-02-16T18:16:05.678Z,13.43
2023-02-16T18:18:40.189Z,13.43
2023-02-16T18:21:09.434Z,12.65
2023-02-16T18:23:38.610Z,14.00
2023-02-16T18:26:08.056Z,13.40
2023-02-16T18:28:37.101Z,12.80
2023-02-16T18:31:09.054Z,13.35
2023-02-16T18:33:38.247Z,12.55
2023-02-16T18:36:07.744Z,13.15
2023-02-16T18:38:37.323Z,13.43
2023-02-16T18:41:06.753Z,12.85
2023-02-16T18:43:38.018Z,12.57
2023-02-16T18:46:09.104Z,12.82
2023-02-16T18:48:38.257Z,12.95
2023-02-16T18:51:09.945Z,12.68
2023-02-16T18:53:39.293Z,11.98
2023-02-16T18:56:10.369Z,13.32
2023-02-16T18:58:39.602Z,13.35
2023-02-16T19:01:34.469Z,14.13
2023-02-16T19:04:04.712Z,11.90
2023-02-16T19:06:34.714Z,12.23
2023-02-16T19:09:03.621Z,12.02
2023-02-16T19:11:33.861Z,13.85
2023-02-16T19:14:02.781Z,13.65
2023-02-16T19:16:31.747Z,13.35
2023-02-16T19:19:00.725Z,12.07
2023-02-16T19:21:29.638Z,13.23
2023-02-16T19:23:58.768Z,12.43
2023-02-16T19:26:28.029Z,11.40
2023-02-16T19:28:57.181Z,12.77
2023-02-16T19:31:32.183Z,12.52
2023-02-16T19:34:01.692Z,12.23
2023-02-16T19:36:33.192Z,12.07
2023-02-16T19:39:05.253Z,12.57
2023-02-16T19:41:38.558Z,12.98
2023-02-16T19:44:07.691Z,12.63
2023-02-16T19:46:36.630Z,12.80
2023-02-16T19:49:05.995Z,11.63
2023-02-16T19:51:35.288Z,12.48
2023-02-16T19:54:04.488Z,13.32
2023-02-16T19:56:33.625Z,12.18
2023-02-16T19:59:02.591Z,12.45
2023-02-16T20:01:31.475Z,12.15
2023-02-16T20:04:01.359Z,12.68
2023-02-16T20:06:33.543Z,12.00
2023-02-16T20:09:03.388Z,12.20
2023-02-16T20:11:32.870Z,13.00
2023-02-16T20:14:02.565Z,12.93
2023-02-16T20:16:31.580Z,12.63
2023-02-16T20:19:00.678Z,13.45
2023-02-16T20:21:31.251Z,12.95
2023-02-16T20:24:03.114Z,13.30
2023-02-16T20:26:44.236Z,14.90
2023-02-16T20:29:17.343Z,13.95
2023-02-16T20:31:57.606Z,14.48
2023-02-16T20:34:28.598Z,14.45
2023-02-16T20:36:57.580Z,13.30
2023-02-16T20:39:26.763Z,13.32
2023-02-16T20:41:55.840Z,13.13
2023-02-16T20:44:24.739Z,13.27
2023-02-16T20:46:54.058Z,13.57
2023-02-16T20:49:23.057Z,13.10
2023-02-16T20:51:51.949Z,13.27
2023-02-16T20:54:20.903Z,12.68
2023-02-16T20:56:49.841Z,12.77
2023-02-16T20:59:18.747Z,12.82
2023-02-16T21:01:51.823Z,12.48
2023-02-16T21:04:21.862Z,12.70
2023-02-16T21:06:51.092Z,13.18
2023-02-16T21:09:20.005Z,13.07
2023-02-16T21:11:49.059Z,12.00
2023-02-16T21:14:18.073Z,12.45
2023-02-16T21:16:47.743Z,13.63
2023-02-16T21:19:22.837Z,12.98
2023-02-16T21:21:53.024Z,12.90
2023-02-16T21:24:22.047Z,25.60
2023-02-16T21:26:50.974Z,25.15
2023-02-16T21:29:19.945Z,23.65
2023-02-16T21:31:48.944Z,23.23
2023-02-16T21:34:17.905Z,22.65
2023-02-16T21:36:46.948Z,24.83
2023-02-16T21:39:15.844Z,23.70
2023-02-16T21:41:44.722Z,22.08
2023-02-16T21:44:19.155Z,23.17
2023-02-16T21:46:49.081Z,22.25
2023-02-16T21:49:20.756Z,23.20
2023-02-16T21:51:50.438Z,12.95
2023-02-16T21:54:40.403Z,11.52
2023-02-16T21:57:09.319Z,15.00
2023-02-16T21:59:38.864Z,13.73
2023-02-16T22:02:07.760Z,14.15
2023-02-16T22:04:36.711Z,14.07
2023-02-16T22:07:05.607Z,15.95
2023-02-16T22:09:34.498Z,15.82
2023-02-16T22:12:03.445Z,18.27
2023-02-16T22:14:34.297Z,19.17
2023-02-16T22:17:04.243Z,24.27
2023-02-16T22:19:33.466Z,21.58
2023-02-16T22:22:02.388Z,25.27
2023-02-16T22:24:31.267Z,17.95
2023-02-16T22:27:00.201Z,17.73
2023-02-16T22:29:29.027Z,18.05
2023-02-16T22:31:57.915Z,17.30
2023-02-16T22:34:26.791Z,17.38
2023-02-16T22:36:55.758Z,18.63
2023-02-16T22:39:24.646Z,18.85
2023-02-16T22:41:53.492Z,19.38
2023-02-16T22:44:22.814Z,19.13
2023-02-16T22:46:51.739Z,19.35
2023-02-16T22:49:20.633Z,16.98
2023-02-16T22:51:49.732Z,19.00
2023-02-16T22:54:18.572Z,18.17
2023-02-16T22:56:47.921Z,16.63
2023-02-16T22:59:16.854Z,16.40
2023-02-16T23:01:45.740Z,17.90
2023-02-16T23:04:18.117Z,17.92
2023-02-16T23:06:47.462Z,17.02
2023-02-16T23:09:22.032Z,17.85
2023-02-16T23:11:51.480Z,17.30
2023-02-16T23:14:22.170Z,17.17
2023-02-16T23:16:55.442Z,13.65
2023-02-16T23:19:26.856Z,14.30
2023-02-16T23:21:56.281Z,14.82
2023-02-16T23:24:26.150Z,14.38
2023-02-16T23:26:55.596Z,13.95
2023-02-16T23:29:24.721Z,13.80
2023-02-16T23:31:54.716Z,15.70
2023-02-16T23:34:23.751Z,17.05
2023-02-16T23:36:52.683Z,16.48
2023-02-16T23:39:21.701Z,16.70
2023-02-16T23:41:50.681Z,16.67
2023-02-16T23:44:19.921Z,18.70
2023-02-16T23:46:48.889Z,18.77
2023-02-16T23:49:17.858Z,17.90
2023-02-16T23:51:46.795Z,18.02
2023-02-16T23:54:15.762Z,18.45
2023-02-16T23:56:44.705Z,17.73
2023-02-16T23:59:13.664Z,18.27
